Aérodrome :
LOGIN :

S'inscrire | Disclaimer

   EN    FR    IT 

 










Légende :    VFR   VFR Marginal   IFR   IFR Intensif   IFR Très Intensif
Visi : 
Plafond : 
>= 8 km
>= 3000ft
5 à 8 km
1000 à 3000 ft
1500m à 5 km
500 à 1000 ft
800 à 1500m
200 à 500 ft
< 800m
< 200 ft
Symboles :   Orages  Brouillard  Fortes neiges  Fortes précipitations  Vent > 20 kt
SIGMETs :   Divers  Orages  Givrage  Turbulence  Onde Orograph.  Cendres Volcan.







- Altitude de l'aérodrome : 290 ft
- Code IATA : LAI
- Voir les cartes d'approche


LFRO - Lannion

DERNIER METAR :
  • 200100Z AUTO 22010KT 8000 -RA FEW012 BKN030 BKN035 07/06 Q1012

METARs EXPIRÉS :
  • 200030Z AUTO 21011KT 9999 -RA FEW019/// OVC046/// ///TCU 07/06 Q1013
  • 200000Z AUTO 22009KT 9000 -RA FEW013/// BKN021/// BKN031/// ///TCU 07/06 Q1014
  • 192330Z AUTO 23010KT 9999 -DZ FEW024 BKN056 OVC068 07/06 Q1014
  • 192300Z AUTO 23010KT 9999 -DZ FEW043 SCT058 BKN074 07/06 Q1015
  • 192230Z AUTO 22010KT 9999 -DZ FEW015 SCT034 BKN046 07/06 Q1015

TAF TAF LFRO
Valide du 19 à 18h jusqu'au 20 à 18h UTC


191700Z 1918/2018 26015KT 9999 SCT030 SCT040
TEMPO 1918/1921 26015G25KT SHRA SCT018TCU
BECMG 1921/1923 RA OVC010 OVC030
BECMG 2001/2003 18012KT
BECMG 2003/2005 27025G42KT 4000 RADZ OVC005
Pas de NOTAMs connus pour ce terrain.
1 SIGMET publié pour la FIR Brest (LFRR) :
 
Turbulence forte
LFRR SIGMET 2 VALID 200000/200400 LFPW
LFRR BREST FIR/UIR SEV TURB FCST WI N4530 W00800 - N4900 W00800 - N4915 W00645 - N4530 W00700 - N4530 W00800 SFC/FL050 MOV E 35KT NC=



MET'MAP, la Météo Aéronautique d'un coup d'oeil ! - Copyright ORBIFLY Décembre 2007 - Disclaimer

ORBIFLY MET'MAP TEAM :

Programmation & Développement : Alexandra Zaïnal
Conception & Développement : Baudouin d'Aumeries
Co-Programmation & Développement : Marc-Olivier Méhu
Soutien technique & logistique : Manuel Goepfert

Contact : metmap@orbifly.com




SOURCES & CREDITS :

   NOAA